Dr.kaiyo — JD2325 — position and weather

sailwx.info

Track history (hours):
 
Tides and Currents Weather Stations Pressure Air Temp Water Temp Dewpoint Dewpoint Depression Visibility Wind Speed Wind Dir Waves Ship Positions

Dr.kaiyo

Last reported at 2014-Dec-19 04:33 UTC. Time now 2014-Dec-21 00:28 UTC.
Position N 34°41' E 135°15'.

Length 31 m.

Type: Other ship. MMSI: 431301823.

Date/timePositionNaut miles runAvg speedWind from/ knotsBaromVisibWave heightAir tempDewpointWater temp
2014-Dec-19 04:33N 34°41' E 135°15'4 3.9
2014-Dec-19 03:32N 34°40' E 135°20'5 5.4
2014-Dec-19 02:33N 34°36' E 135°15'10 9.8
2014-Dec-19 01:33N 34°32' E 135°04'1111.3
2014-Dec-19 00:34N 34°41' E 135°13'  
2014-Dec-16 04:27N 34°42' E 135°12'6 6.7
2014-Dec-16 03:31N 34°41' E 135°20'1 1.1
2014-Dec-16 02:18N 34°41' E 135°19'1212.2
2014-Dec-16 01:22N 34°32' E 135°10'8 9.7
2014-Dec-16 00:33N 34°40' E 135°11'2 0.1
2014-Dec-15 05:25N 34°42' E 135°12'6 6.0
2014-Dec-15 04:25N 34°41' E 135°20'0 0.0
2014-Dec-15 03:25N 34°41' E 135°20'3 2.9
2014-Dec-15 02:33N 34°39' E 135°18'1313.0
2014-Dec-15 01:33N 34°31' E 135°06'1110.7
2014-Dec-15 00:33N 34°40' E 135°12'  
2014-Dec-12 05:16N 34°41' E 135°12'3 3.8
2014-Dec-12 04:33N 34°40' E 135°15'3 2.6
2014-Dec-12 03:27N 34°39' E 135°12'4 4.1
2014-Dec-12 02:33N 34°36' E 135°15'8 8.1
2014-Dec-12 01:33N 34°30' E 135°08'1010.4
2014-Dec-12 00:33N 34°40' E 135°11'2 0.1
2014-Dec-11 05:12N 34°42' E 135°12'5 8.3
2014-Dec-11 04:33N 34°39' E 135°18'2 1.9
2014-Dec-11 03:21N 34°40' E 135°20'7 8.4
2014-Dec-11 02:33N 34°36' E 135°14'5 4.6
2014-Dec-11 01:33N 34°40' E 135°12'2 0.1
2014-Dec-10 04:34N 34°41' E 135°13'6 5.7
2014-Dec-10 03:31N 34°40' E 135°20'2 2.4
2014-Dec-10 02:32N 34°38' E 135°19'1111.5
2014-Dec-10 01:33N 34°30' E 135°10'9 9.2
2014-Dec-10 00:33N 34°39' E 135°11'  
Track history (hours):
 
Tides and Currents Weather Stations Pressure Air Temp Water Temp Dewpoint Dewpoint Depression Visibility Wind Speed Wind Dir Waves Ship Positions

Dr.kaiyo

Last reported at 2014-Dec-19 04:33 UTC. Time now 2014-Dec-21 00:28 UTC.
Position N 34°41' E 135°15'.

Length 31 m.

Type: Other ship. MMSI: 431301823.

Date/timePositionNaut miles runAvg speedWind from/ knotsBaromVisibWave heightAir tempDewpointWater temp
2014-Dec-19 04:33N 34°41' E 135°15'4 3.9
2014-Dec-19 03:32N 34°40' E 135°20'5 5.4
2014-Dec-19 02:33N 34°36' E 135°15'10 9.8
2014-Dec-19 01:33N 34°32' E 135°04'1111.3
2014-Dec-19 00:34N 34°41' E 135°13'  
2014-Dec-16 04:27N 34°42' E 135°12'6 6.7
2014-Dec-16 03:31N 34°41' E 135°20'1 1.1
2014-Dec-16 02:18N 34°41' E 135°19'1212.2
2014-Dec-16 01:22N 34°32' E 135°10'8 9.7
2014-Dec-16 00:33N 34°40' E 135°11'2 0.1
2014-Dec-15 05:25N 34°42' E 135°12'6 6.0
2014-Dec-15 04:25N 34°41' E 135°20'0 0.0
2014-Dec-15 03:25N 34°41' E 135°20'3 2.9
2014-Dec-15 02:33N 34°39' E 135°18'1313.0
2014-Dec-15 01:33N 34°31' E 135°06'1110.7
2014-Dec-15 00:33N 34°40' E 135°12'  
2014-Dec-12 05:16N 34°41' E 135°12'3 3.8
2014-Dec-12 04:33N 34°40' E 135°15'3 2.6
2014-Dec-12 03:27N 34°39' E 135°12'4 4.1
2014-Dec-12 02:33N 34°36' E 135°15'8 8.1
2014-Dec-12 01:33N 34°30' E 135°08'1010.4
2014-Dec-12 00:33N 34°40' E 135°11'2 0.1
2014-Dec-11 05:12N 34°42' E 135°12'5 8.3
2014-Dec-11 04:33N 34°39' E 135°18'2 1.9
2014-Dec-11 03:21N 34°40' E 135°20'7 8.4
2014-Dec-11 02:33N 34°36' E 135°14'5 4.6
2014-Dec-11 01:33N 34°40' E 135°12'2 0.1
2014-Dec-10 04:34N 34°41' E 135°13'6 5.7
2014-Dec-10 03:31N 34°40' E 135°20'2 2.4
2014-Dec-10 02:32N 34°38' E 135°19'1111.5
2014-Dec-10 01:33N 34°30' E 135°10'9 9.2
2014-Dec-10 00:33N 34°39' E 135°11'  

Dump ship's entire track history